createdAt,value
2023-05-23T00:01:54.298Z,45.65
2023-05-23T00:06:55.765Z,46.03
2023-05-23T00:11:56.852Z,44.05
2023-05-23T00:16:58.833Z,47.80
2023-05-23T00:21:59.747Z,45.78
2023-05-23T00:27:01.297Z,41.80
2023-05-23T00:32:03.331Z,43.47
2023-05-23T00:37:04.271Z,42.08
2023-05-23T00:42:05.893Z,40.65
2023-05-23T00:47:07.292Z,40.15
2023-05-23T00:52:08.769Z,39.97
2023-05-23T00:57:10.521Z,37.85
2023-05-23T01:02:12.082Z,33.20
2023-05-23T01:07:13.361Z,33.42
2023-05-23T01:12:46.192Z,32.85
2023-05-23T01:20:55.200Z,34.65
2023-05-23T01:29:09.661Z,35.28
2023-05-23T01:34:12.900Z,38.73
2023-05-23T01:39:13.845Z,37.45
2023-05-23T01:44:15.412Z,35.70
2023-05-23T01:49:17.950Z,36.60
2023-05-23T01:54:19.188Z,37.35
2023-05-23T01:59:20.365Z,36.65
2023-05-23T02:04:21.352Z,34.05
2023-05-23T02:09:22.292Z,32.13
2023-05-23T02:14:23.206Z,32.58
2023-05-23T02:19:24.101Z,32.35
2023-05-23T02:24:25.196Z,31.33
2023-05-23T02:29:26.064Z,29.95
2023-05-23T02:34:26.971Z,28.02
2023-05-23T02:39:28.070Z,26.55
2023-05-23T02:44:29.558Z,25.45
2023-05-23T02:49:31.172Z,25.55
2023-05-23T02:54:31.976Z,26.15
2023-05-23T02:59:33.624Z,25.42
2023-05-23T03:04:34.447Z,22.52
2023-05-23T03:09:35.446Z,20.85
2023-05-23T03:14:36.221Z,21.87
2023-05-23T03:19:37.201Z,21.55
2023-05-23T03:24:38.181Z,21.42
2023-05-23T03:29:39.152Z,18.80
2023-05-23T03:34:39.969Z,18.17
2023-05-23T03:39:40.873Z,17.20
2023-05-23T03:44:41.697Z,17.30
2023-05-23T03:49:44.354Z,17.17
2023-05-23T03:54:45.970Z,17.98
2023-05-23T03:59:46.966Z,13.48
2023-05-23T04:04:48.921Z,14.02
2023-05-23T04:09:50.093Z,14.63
2023-05-23T04:14:52.186Z,16.45
2023-05-23T04:19:53.547Z,19.80
2023-05-23T04:24:54.969Z,18.50
2023-05-23T04:29:57.482Z,21.08
2023-05-23T04:35:01.482Z,22.77
2023-05-23T04:40:03.993Z,24.05
2023-05-23T04:46:26.572Z,27.52
2023-05-23T04:54:05.217Z,25.37
2023-05-23T04:59:08.099Z,23.38
2023-05-23T05:09:10.911Z,24.33
2023-05-23T05:14:12.098Z,23.15
2023-05-23T05:19:13.438Z,15.80
2023-05-23T05:24:15.005Z,13.15
2023-05-23T05:29:16.538Z,9.88
2023-05-23T05:34:18.944Z,7.20
2023-05-23T05:39:20.331Z,6.57
2023-05-23T05:44:22.389Z,7.37
2023-05-23T05:49:24.910Z,6.90
2023-05-23T05:54:25.932Z,7.18
2023-05-23T05:59:27.282Z,8.05
2023-05-23T06:04:29.227Z,8.20
2023-05-23T06:09:31.424Z,8.30
2023-05-23T06:14:32.619Z,9.48
2023-05-23T06:19:34.433Z,9.52
2023-05-23T06:24:35.527Z,8.85
2023-05-23T06:29:38.338Z,9.68
2023-05-23T06:34:39.150Z,8.65
2023-05-23T06:39:40.773Z,7.55
2023-05-23T06:44:41.753Z,6.32
2023-05-23T06:49:45.684Z,5.47
2023-05-23T06:54:46.652Z,5.70
2023-05-23T06:59:48.112Z,4.75
2023-05-23T07:04:49.452Z,4.57
2023-05-23T07:09:54.332Z,4.40
2023-05-23T07:14:56.605Z,5.40
2023-05-23T07:25:01.386Z,6.07
2023-05-23T07:30:09.072Z,6.47
2023-05-23T07:35:10.966Z,6.85
2023-05-23T07:40:11.835Z,7.43
2023-05-23T07:45:13.735Z,7.35
2023-05-23T07:50:16.962Z,7.10
2023-05-23T07:55:18.285Z,7.12
2023-05-23T08:00:20.175Z,6.57
2023-05-23T08:05:23.911Z,6.85
2023-05-23T08:10:28.903Z,6.93
2023-05-23T08:15:36.608Z,6.50
2023-05-23T08:20:43.653Z,6.12
2023-05-23T08:25:44.941Z,6.37
2023-05-23T08:30:46.211Z,6.15
2023-05-23T08:35:47.577Z,7.50
2023-05-23T08:40:53.611Z,7.28
2023-05-23T08:45:56.695Z,8.43
2023-05-23T08:51:02.237Z,9.45
2023-05-23T08:56:03.832Z,9.60
2023-05-23T09:01:13.737Z,10.82
2023-05-23T09:06:17.454Z,11.02
2023-05-23T09:11:21.164Z,11.15
2023-05-23T09:16:22.969Z,11.73
2023-05-23T09:21:31.221Z,12.32
2023-05-23T09:26:49.803Z,12.85
2023-05-23T09:31:51.051Z,11.57
2023-05-23T09:36:54.737Z,12.30
2023-05-23T09:41:58.678Z,11.18
2023-05-23T09:47:06.206Z,12.00
2023-05-23T09:52:07.120Z,11.12
2023-05-23T09:57:10.473Z,11.68
2023-05-23T10:07:15.091Z,9.48
2023-05-23T10:13:40.968Z,8.30
2023-05-23T10:18:51.353Z,10.73
2023-05-23T10:23:52.586Z,11.65
2023-05-23T10:28:54.499Z,13.07
2023-05-23T10:34:07.931Z,16.80
2023-05-23T10:39:16.283Z,19.95
2023-05-23T10:44:28.429Z,18.50
2023-05-23T10:49:51.648Z,18.87
2023-05-23T10:54:54.131Z,20.98
2023-05-23T10:59:56.532Z,20.92
2023-05-23T11:05:21.629Z,17.45
2023-05-23T11:10:22.545Z,19.37
2023-05-23T11:15:23.473Z,17.90
2023-05-23T11:20:26.600Z,17.92
2023-05-23T11:25:52.984Z,16.60
2023-05-23T11:30:56.623Z,15.63
2023-05-23T11:35:57.494Z,15.18
2023-05-23T11:40:59.685Z,15.02
2023-05-23T11:46:08.164Z,17.63
2023-05-23T11:51:09.200Z,16.15
2023-05-23T11:56:10.056Z,14.93
2023-05-23T12:01:12.179Z,14.77
2023-05-23T12:06:18.251Z,13.47
2023-05-23T12:11:19.127Z,13.80
2023-05-23T12:16:20.471Z,11.95
2023-05-23T12:21:25.164Z,12.43
2023-05-23T12:26:26.001Z,11.65
2023-05-23T12:31:27.099Z,12.40
2023-05-23T12:36:31.996Z,13.35
2023-05-23T12:41:33.194Z,13.00
2023-05-23T12:46:34.617Z,14.45
2023-05-23T12:51:35.984Z,13.65
2023-05-23T12:56:36.760Z,13.18
2023-05-23T13:01:37.917Z,11.57
2023-05-23T13:06:38.807Z,11.85
2023-05-23T13:11:40.674Z,12.82
2023-05-23T13:16:41.524Z,13.02
2023-05-23T13:21:42.769Z,13.23
2023-05-23T13:26:43.605Z,13.38
2023-05-23T13:31:44.872Z,13.50
2023-05-23T13:36:45.793Z,14.52
2023-05-23T13:41:46.983Z,13.43
2023-05-23T13:46:47.842Z,14.55
2023-05-23T13:51:49.420Z,13.82
2023-05-23T13:56:50.247Z,16.90
2023-05-23T14:01:51.091Z,18.67
2023-05-23T14:06:52.658Z,19.27
2023-05-23T14:11:53.504Z,22.05
2023-05-23T14:16:54.319Z,21.08
2023-05-23T14:21:55.401Z,19.30
2023-05-23T14:26:56.806Z,17.70
2023-05-23T14:31:59.992Z,17.08
2023-05-23T14:37:00.938Z,17.50
2023-05-23T14:42:02.047Z,15.85
2023-05-23T14:47:03.268Z,14.65
2023-05-23T14:52:04.333Z,13.43
2023-05-23T14:57:05.142Z,14.13
2023-05-23T15:02:07.502Z,13.75
2023-05-23T15:07:08.847Z,13.18
2023-05-23T15:12:09.745Z,13.77
2023-05-23T15:17:12.243Z,12.73
2023-05-23T15:22:25.801Z,13.35
2023-05-23T15:27:37.749Z,11.45
2023-05-23T15:32:38.616Z,11.80
2023-05-23T15:37:40.276Z,13.23
2023-05-23T15:42:41.083Z,12.55
2023-05-23T15:47:42.008Z,13.05
2023-05-23T15:52:42.944Z,13.20
2023-05-23T15:57:43.808Z,13.10
2023-05-23T16:02:44.795Z,12.68
2023-05-23T16:07:45.731Z,13.65
2023-05-23T16:12:46.607Z,14.40
2023-05-23T16:17:47.472Z,12.13
2023-05-23T16:22:48.506Z,12.68
2023-05-23T16:27:49.658Z,11.88
2023-05-23T16:32:50.506Z,12.40
2023-05-23T16:37:51.812Z,13.07
2023-05-23T16:42:52.641Z,13.82
2023-05-23T16:47:53.578Z,13.73
2023-05-23T16:52:54.702Z,13.95
2023-05-23T16:57:55.722Z,15.35
2023-05-23T17:02:56.625Z,15.27
2023-05-23T17:07:57.646Z,15.02
2023-05-23T17:12:58.418Z,16.60
2023-05-23T17:17:59.397Z,16.67
2023-05-23T17:23:00.333Z,14.90
2023-05-23T17:28:01.268Z,14.98
2023-05-23T17:33:02.536Z,14.18
2023-05-23T17:38:03.917Z,14.05
2023-05-23T17:43:04.712Z,13.93
2023-05-23T17:48:05.581Z,14.70
2023-05-23T17:53:07.035Z,13.98
2023-05-23T17:58:08.279Z,13.40
2023-05-23T18:03:09.126Z,13.45
2023-05-23T18:08:10.153Z,12.88
2023-05-23T18:13:11.037Z,13.50
2023-05-23T18:18:12.004Z,12.25
2023-05-23T18:23:13.179Z,12.93
2023-05-23T18:28:13.961Z,10.98
2023-05-23T18:33:15.262Z,11.00
2023-05-23T18:38:16.467Z,10.95
2023-05-23T18:43:17.698Z,11.00
2023-05-23T18:48:19.094Z,11.45
2023-05-23T18:53:20.130Z,13.10
2023-05-23T18:58:20.973Z,12.48
2023-05-23T19:03:21.954Z,11.55
2023-05-23T19:08:22.962Z,11.25
2023-05-23T19:13:23.927Z,11.40
2023-05-23T19:18:25.275Z,11.12
2023-05-23T19:23:27.312Z,10.98
2023-05-23T19:28:28.104Z,10.27
2023-05-23T19:33:28.997Z,10.55
2023-05-23T19:38:29.841Z,10.40
2023-05-23T19:43:30.718Z,10.65
2023-05-23T19:48:31.565Z,10.07
2023-05-23T19:53:32.595Z,10.32
2023-05-23T19:58:35.514Z,11.15
2023-05-23T20:03:36.865Z,10.15
2023-05-23T20:08:37.736Z,11.75
2023-05-23T20:13:38.625Z,10.63
2023-05-23T20:18:41.886Z,10.55
2023-05-23T20:23:44.565Z,10.00
2023-05-23T20:28:45.398Z,9.68
2023-05-23T20:33:46.292Z,10.93
2023-05-23T20:38:47.158Z,10.07
2023-05-23T20:43:48.273Z,9.10
2023-05-23T20:48:49.136Z,9.73
2023-05-23T20:53:50.938Z,10.07
2023-05-23T20:58:51.934Z,8.90
2023-05-23T21:03:53.928Z,8.15
2023-05-23T21:08:54.730Z,7.85
2023-05-23T21:13:56.882Z,7.10
2023-05-23T21:18:57.791Z,8.20
2023-05-23T21:23:58.775Z,7.40
2023-05-23T21:28:59.601Z,6.20
2023-05-23T21:34:11.060Z,7.05
2023-05-23T21:39:19.877Z,5.82
2023-05-23T21:44:20.757Z,5.43
2023-05-23T21:49:21.682Z,5.10
2023-05-23T21:54:22.608Z,5.37
2023-05-23T21:59:23.548Z,5.07
2023-05-23T22:04:24.780Z,5.68
2023-05-23T22:09:25.793Z,5.53
2023-05-23T22:14:26.745Z,5.57
2023-05-23T22:19:28.648Z,5.28
2023-05-23T22:24:30.409Z,4.93
2023-05-23T22:29:31.250Z,4.82
2023-05-23T22:34:32.178Z,4.80
2023-05-23T22:39:33.013Z,5.35
2023-05-23T22:44:33.843Z,4.47
2023-05-23T22:49:35.606Z,5.37
2023-05-23T22:54:36.554Z,5.75
2023-05-23T22:59:37.442Z,4.40
2023-05-23T23:04:40.864Z,4.60
2023-05-23T23:09:41.729Z,4.72
2023-05-23T23:14:42.560Z,5.10
2023-05-23T23:19:43.368Z,4.93
2023-05-23T23:24:46.688Z,4.30
2023-05-23T23:34:48.528Z,4.70
2023-05-23T23:39:49.405Z,4.32
2023-05-23T23:44:50.366Z,4.80
2023-05-23T23:49:51.175Z,4.12
2023-05-23T23:54:52.361Z,4.72
2023-05-23T23:59:53.170Z,5.28
